Sibu, Malaysia
Current Conditions -  °F | °C
As of 9:00 PM on Thursday 18 Dec 2014 (Local Time) from WBGS Reporting Station
Thunderstorm Thunderstorm  
Wind Chill: 79°   Ceiling: 15000
Heat Index: 82°   Visibility: 6mi
Dew Point: 75°   Wind: 1mph
Humidity: 89%   Direction: 250°WSW
Pressure: 29.85"   Gusts: NA
Location:  2.3°N, 111.83°E
Report Text: WBGS 181300Z 25001KT 9999 -TSRA FEW015CB SCT016 BKN150 26/24 Q1011
Loading
Personal Weather Stations






























Interactive Weather Map New forecast layout! Learn more

10-Day Weather Forecast

Advertisements
Track Severe Weather on mobile